Time;durP1;ratioP1;P1;durP2;ratioP2;P2;SDS_P1;SDS_P2;PMS_P1;PMS_P2;Temp;Humidity;BMP_temperature;BMP_pressure;BME280_temperature;BME280_humidity;BME280_pressure;Samples;Min_cycle;Max_cycle;Signal;HPM_P1;HPM_P2
2023/06/03 00:04:04;;;;;;;8.57;4.40;;;;;;;;;;10444040;28;20472;-80
2023/06/03 00:09:05;;;;;;;12.23;4.70;;;;;;;;;;10435227;28;20039;-81
2023/06/03 00:14:06;;;;;;;10.63;4.40;;;;;;;;;;10446422;28;20044;-80
2023/06/03 00:19:07;;;;;;;16.07;6.30;;;;;;;;;;10434264;28;20443;-80
2023/06/03 00:24:08;;;;;;;17.83;6.53;;;;;;;;;;10435907;28;20033;-80
2023/06/03 00:29:10;;;;;;;22.23;8.87;;;;;;;;;;10446169;28;20040;-80
2023/06/03 00:34:11;;;;;;;45.00;18.03;;;;;;;;;;10436856;28;20048;-79
2023/06/03 00:39:12;;;;;;;22.43;9.67;;;;;;;;;;10426628;28;20034;-79
2023/06/03 00:44:13;;;;;;;9.33;4.13;;;;;;;;;;10406398;28;20026;-79
2023/06/03 00:49:14;;;;;;;8.27;3.30;;;;;;;;;;10433788;28;20040;-80
2023/06/03 00:54:16;;;;;;;9.03;4.77;;;;;;;;;;10445157;28;20133;-79
2023/06/03 00:59:17;;;;;;;12.97;6.40;;;;;;;;;;10444329;28;20029;-79
2023/06/03 01:04:25;;;;;;;17.70;8.30;;;;;;;;;;10441637;28;20158;-79
2023/06/03 01:09:28;;;;;;;11.10;6.23;;;;;;;;;;10445178;28;20029;-80
2023/06/03 01:14:35;;;;;;;9.40;3.97;;;;;;;;;;10439990;28;20033;-80
2023/06/03 01:19:49;;;;;;;13.57;4.33;;;;;;;;;;10420451;28;20079;-80
2023/06/03 01:24:50;;;;;;;8.47;3.73;;;;;;;;;;10416219;28;20040;-78
2023/06/03 01:29:51;;;;;;;8.93;4.30;;;;;;;;;;10444932;28;20029;-78
2023/06/03 01:34:53;;;;;;;6.50;3.30;;;;;;;;;;10434438;28;20044;-80
2023/06/03 01:39:55;;;;;;;4.67;2.50;;;;;;;;;;10444792;28;20029;-80
2023/06/03 01:45:00;;;;;;;6.43;2.57;;;;;;;;;;10437632;28;20112;-80
2023/06/03 01:50:01;;;;;;;5.03;2.73;;;;;;;;;;10396098;28;20025;-79
2023/06/03 01:55:03;;;;;;;5.63;2.40;;;;;;;;;;10439338;28;20053;-79
2023/06/03 02:00:07;;;;;;;6.20;2.70;;;;;;;;;;10429058;28;20049;-79
2023/06/03 02:05:08;;;;;;;6.03;2.17;;;;;;;;;;10417440;28;20186;-80
2023/06/03 02:10:09;;;;;;;7.47;2.60;;;;;;;;;;10414083;28;20037;-79
2023/06/03 02:15:10;;;;;;;5.80;2.13;;;;;;;;;;10450318;28;20388;-78
2023/06/03 02:20:11;;;;;;;4.63;2.20;;;;;;;;;;10422103;28;20558;-80
2023/06/03 02:25:13;;;;;;;5.47;2.17;;;;;;;;;;10417290;28;20017;-80
2023/06/03 02:30:14;;;;;;;7.63;2.73;;;;;;;;;;10444937;28;20037;-79
2023/06/03 02:35:15;;;;;;;4.57;1.80;;;;;;;;;;10430226;28;20045;-79
2023/06/03 02:40:16;;;;;;;13.90;2.87;;;;;;;;;;10427303;28;20041;-80
2023/06/03 02:45:17;;;;;;;4.63;2.20;;;;;;;;;;10435123;28;20028;-80
2023/06/03 02:50:18;;;;;;;4.63;2.50;;;;;;;;;;10430273;28;20025;-81
2023/06/03 02:55:23;;;;;;;5.67;2.40;;;;;;;;;;10433882;28;20060;-80
2023/06/03 03:00:33;;;;;;;9.63;2.53;;;;;;;;;;10425615;28;20460;-78
2023/06/03 03:05:34;;;;;;;4.00;2.50;;;;;;;;;;10409162;28;20087;-80
2023/06/03 03:10:35;;;;;;;10.17;2.70;;;;;;;;;;10402728;28;20401;-78
2023/06/03 03:15:36;;;;;;;6.00;2.47;;;;;;;;;;10396949;28;20041;-80
2023/06/03 03:20:37;;;;;;;6.37;2.33;;;;;;;;;;10411838;28;20385;-79
2023/06/03 03:25:40;;;;;;;8.67;2.87;;;;;;;;;;10421154;28;20036;-81
2023/06/03 03:30:41;;;;;;;8.47;2.50;;;;;;;;;;10421672;28;20021;-80
2023/06/03 03:35:43;;;;;;;10.30;2.70;;;;;;;;;;10438274;28;20030;-78
2023/06/03 03:40:44;;;;;;;4.83;2.23;;;;;;;;;;10422977;28;20024;-78
2023/06/03 03:45:46;;;;;;;8.23;2.37;;;;;;;;;;10441472;28;20017;-79
2023/06/03 03:50:50;;;;;;;7.63;2.57;;;;;;;;;;10447479;28;20068;-80
2023/06/03 03:55:53;;;;;;;5.90;2.80;;;;;;;;;;10438105;28;20396;-79
2023/06/03 04:00:57;;;;;;;4.27;2.37;;;;;;;;;;10439772;28;20064;-80
2023/06/03 04:05:58;;;;;;;6.73;2.50;;;;;;;;;;10430511;28;20560;-79
2023/06/03 04:10:59;;;;;;;5.83;2.50;;;;;;;;;;10433295;28;20036;-80
2023/06/03 04:16:00;;;;;;;4.03;2.20;;;;;;;;;;10438497;28;20045;-85
2023/06/03 04:21:02;;;;;;;4.97;2.57;;;;;;;;;;10429493;28;20048;-80
2023/06/03 04:26:03;;;;;;;5.63;2.80;;;;;;;;;;10413864;28;20112;-81
2023/06/03 04:31:04;;;;;;;10.20;2.93;;;;;;;;;;10408511;28;20501;-79
2023/06/03 04:36:05;;;;;;;7.57;2.73;;;;;;;;;;10444546;28;20556;-79
2023/06/03 04:41:06;;;;;;;8.63;3.03;;;;;;;;;;10432010;28;20112;-80
2023/06/03 04:46:09;;;;;;;8.87;3.20;;;;;;;;;;10437638;28;20117;-80
2023/06/03 04:51:11;;;;;;;8.13;2.70;;;;;;;;;;10398945;28;20471;-80
2023/06/03 04:56:12;;;;;;;6.07;2.93;;;;;;;;;;10417018;28;20451;-79
2023/06/03 05:01:16;;;;;;;9.73;3.03;;;;;;;;;;10413477;28;20039;-79
2023/06/03 05:06:18;;;;;;;5.97;2.50;;;;;;;;;;10410228;28;20393;-80
2023/06/03 05:11:20;;;;;;;6.23;2.50;;;;;;;;;;10426660;28;20588;-79
2023/06/03 05:16:21;;;;;;;9.17;2.83;;;;;;;;;;10406200;28;20029;-80
2023/06/03 05:21:22;;;;;;;5.93;3.03;;;;;;;;;;10404477;28;20067;-80
2023/06/03 05:26:23;;;;;;;7.57;3.17;;;;;;;;;;10421564;28;20033;-79
2023/06/03 05:31:24;;;;;;;4.83;2.60;;;;;;;;;;10432973;28;20049;-80
2023/06/03 05:36:28;;;;;;;7.07;2.53;;;;;;;;;;10437911;28;20884;-79
2023/06/03 05:41:29;;;;;;;6.83;2.73;;;;;;;;;;10428099;28;20029;-80
2023/06/03 05:46:30;;;;;;;7.00;2.72;;;;;;;;;;10428626;28;20033;-80
2023/06/03 05:51:31;;;;;;;6.30;2.80;;;;;;;;;;10439969;28;20149;-79
2023/06/03 05:56:32;;;;;;;8.02;3.80;;;;;;;;;;10432583;28;20049;-81
2023/06/03 06:01:33;;;;;;;9.48;2.80;;;;;;;;;;10445457;28;20020;-80
2023/06/03 06:06:35;;;;;;;5.43;2.50;;;;;;;;;;10441499;28;20025;-79
2023/06/03 06:11:36;;;;;;;7.00;2.70;;;;;;;;;;10440142;28;20079;-79
2023/06/03 06:16:37;;;;;;;6.88;2.53;;;;;;;;;;10438137;28;20385;-79
2023/06/03 06:21:38;;;;;;;5.05;2.42;;;;;;;;;;10445336;28;20040;-79
2023/06/03 06:26:40;;;;;;;4.57;2.15;;;;;;;;;;10438370;28;20081;-81
2023/06/03 06:31:41;;;;;;;9.15;2.47;;;;;;;;;;10443465;28;20025;-78
2023/06/03 06:36:43;;;;;;;3.20;2.22;;;;;;;;;;10450988;28;20515;-80
2023/06/03 06:41:44;;;;;;;7.97;2.40;;;;;;;;;;10441052;28;20052;-79
2023/06/03 06:46:47;;;;;;;6.57;2.15;;;;;;;;;;10443359;28;20021;-78
2023/06/03 06:51:48;;;;;;;9.52;2.42;;;;;;;;;;10428730;28;20049;-79
2023/06/03 06:56:49;;;;;;;4.45;2.03;;;;;;;;;;10446205;28;20056;-80
2023/06/03 07:01:50;;;;;;;8.02;2.47;;;;;;;;;;10420670;28;20049;-80
2023/06/03 07:06:51;;;;;;;8.77;2.50;;;;;;;;;;10444361;28;20112;-80
2023/06/03 07:11:52;;;;;;;3.67;2.10;;;;;;;;;;10449209;28;20027;-80
2023/06/03 07:16:53;;;;;;;2.80;1.92;;;;;;;;;;10434321;28;20135;-81
2023/06/03 07:21:54;;;;;;;5.25;2.15;;;;;;;;;;10418471;28;20051;-80
2023/06/03 07:26:55;;;;;;;4.13;2.17;;;;;;;;;;10449249;28;20468;-82
2023/06/03 07:31:56;;;;;;;5.93;2.20;;;;;;;;;;10448746;28;20039;-80
2023/06/03 07:37:01;;;;;;;4.43;2.50;;;;;;;;;;10435121;28;20052;-80
2023/06/03 07:42:02;;;;;;;3.93;2.17;;;;;;;;;;10448426;28;20017;-81
2023/06/03 07:47:03;;;;;;;7.70;2.58;;;;;;;;;;10434948;28;20311;-80
2023/06/03 07:52:04;;;;;;;4.97;2.65;;;;;;;;;;10427631;28;20049;-80
2023/06/03 07:57:05;;;;;;;5.97;2.30;;;;;;;;;;10422452;28;20069;-80
2023/06/03 08:02:11;;;;;;;4.10;2.25;;;;;;;;;;10405584;28;20031;-80
2023/06/03 08:07:12;;;;;;;2.97;1.65;;;;;;;;;;10399882;28;20044;-81
2023/06/03 08:12:13;;;;;;;5.32;2.03;;;;;;;;;;10393439;28;20398;-79
2023/06/03 08:17:15;;;;;;;3.83;1.90;;;;;;;;;;10404041;28;20037;-82
2023/06/03 08:22:27;;;;;;;3.72;2.00;;;;;;;;;;10404986;28;20029;-81
2023/06/03 08:27:30;;;;;;;6.22;2.17;;;;;;;;;;10400270;28;20033;-80
2023/06/03 08:32:35;;;;;;;3.55;1.70;;;;;;;;;;10403424;28;20108;-83
2023/06/03 08:37:36;;;;;;;3.30;1.67;;;;;;;;;;10397670;28;20029;-83
2023/06/03 08:42:47;;;;;;;5.07;2.42;;;;;;;;;;10403494;28;20091;-84
2023/06/03 08:47:52;;;;;;;5.05;1.92;;;;;;;;;;10400857;28;20026;-86
2023/06/03 08:52:54;;;;;;;3.63;1.90;;;;;;;;;;10395896;28;20080;-84
2023/06/03 08:58:00;;;;;;;4.72;2.28;;;;;;;;;;10403228;28;20049;-88
2023/06/03 09:03:01;;;;;;;2.55;1.95;;;;;;;;;;10395342;28;20465;-86
2023/06/03 09:08:03;;;;;;;15.55;4.53;;;;;;;;;;10391824;28;20037;-88
2023/06/03 09:13:05;;;;;;;5.03;2.15;;;;;;;;;;10402316;28;20119;-85
2023/06/03 09:18:06;;;;;;;9.50;3.28;;;;;;;;;;10394437;28;20680;-83
2023/06/03 09:23:07;;;;;;;8.68;2.97;;;;;;;;;;10402459;28;20107;-82
2023/06/03 09:28:08;;;;;;;4.97;1.95;;;;;;;;;;10401355;28;20033;-84
2023/06/03 09:33:09;;;;;;;3.90;1.60;;;;;;;;;;10400592;28;20036;-83
2023/06/03 09:38:10;;;;;;;4.32;1.52;;;;;;;;;;10402786;28;20041;-82
2023/06/03 09:43:11;;;;;;;2.38;1.35;;;;;;;;;;10402861;28;20429;-83
2023/06/03 09:48:12;;;;;;;1.55;1.27;;;;;;;;;;10394957;28;20022;-82
2023/06/03 09:53:21;;;;;;;2.85;1.70;;;;;;;;;;10403020;28;20769;-83
2023/06/03 09:58:23;;;;;;;4.38;1.65;;;;;;;;;;10393422;28;20132;-83
2023/06/03 10:03:25;;;;;;;3.00;1.50;;;;;;;;;;10402163;28;20142;-83
2023/06/03 10:08:32;;;;;;;5.32;1.70;;;;;;;;;;10400901;28;20026;-83
2023/06/03 10:13:33;;;;;;;5.03;1.73;;;;;;;;;;10399036;28;20064;-83
2023/06/03 10:18:36;;;;;;;4.60;1.92;;;;;;;;;;10397268;28;20432;-82
2023/06/03 10:23:38;;;;;;;2.72;1.52;;;;;;;;;;10402206;28;20038;-83
2023/06/03 10:28:39;;;;;;;1.83;1.45;;;;;;;;;;10402238;28;20026;-83
2023/06/03 10:33:41;;;;;;;7.00;1.55;;;;;;;;;;10405276;28;20052;-84
2023/06/03 10:38:42;;;;;;;2.88;1.60;;;;;;;;;;10396581;28;20036;-83
2023/06/03 10:43:45;;;;;;;11.73;4.03;;;;;;;;;;10408490;28;20764;-84
2023/06/03 10:48:47;;;;;;;5.28;2.10;;;;;;;;;;10401057;28;20037;-84
2023/06/03 10:54:01;;;;;;;5.47;1.77;;;;;;;;;;10408622;28;20037;-86
2023/06/03 10:59:03;;;;;;;3.95;1.52;;;;;;;;;;10396408;28;20069;-85
2023/06/03 11:04:06;;;;;;;3.35;1.52;;;;;;;;;;10404247;28;20470;-86
2023/06/03 11:09:16;;;;;;;3.10;1.30;;;;;;;;;;10407868;28;20040;-84
2023/06/03 11:14:27;;;;;;;2.20;1.30;;;;;;;;;;10407318;28;20046;-85
2023/06/03 11:19:28;;;;;;;3.17;1.50;;;;;;;;;;10404667;28;20451;-86
2023/06/03 11:24:38;;;;;;;3.17;1.60;;;;;;;;;;10407032;28;20040;-83
2023/06/03 11:29:51;;;;;;;2.00;1.33;;;;;;;;;;10405915;28;20692;-84
2023/06/03 11:35:13;;;;;;;5.38;1.90;;;;;;;;;;10393795;28;20406;-85
2023/06/03 11:40:17;;;;;;;3.35;1.27;;;;;;;;;;10437772;28;20450;-84
2023/06/03 11:45:18;;;;;;;3.78;1.38;;;;;;;;;;10427304;28;20501;-85
2023/06/03 11:50:20;;;;;;;3.63;1.40;;;;;;;;;;10436321;28;20021;-85
2023/06/03 11:55:25;;;;;;;2.88;1.02;;;;;;;;;;10433081;28;20412;-86
2023/06/03 12:00:26;;;;;;;5.13;1.50;;;;;;;;;;10418722;28;20030;-88
2023/06/03 12:05:28;;;;;;;2.30;1.13;;;;;;;;;;10426547;28;20082;-84
2023/06/03 12:10:29;;;;;;;6.82;1.27;;;;;;;;;;10424993;28;20080;-86
2023/06/03 12:15:30;;;;;;;1.00;0.85;;;;;;;;;;10418418;28;20569;-87
2023/06/03 12:20:31;;;;;;;2.20;1.30;;;;;;;;;;10405488;28;20756;-84
2023/06/03 12:25:33;;;;;;;3.85;1.25;;;;;;;;;;10400191;28;20068;-86
2023/06/03 12:30:34;;;;;;;3.58;1.13;;;;;;;;;;10396304;28;20057;-84
2023/06/03 12:35:36;;;;;;;4.38;1.60;;;;;;;;;;10378484;28;20036;-85
2023/06/03 12:40:37;;;;;;;2.97;0.95;;;;;;;;;;10394108;28;20255;-83
2023/06/03 12:45:39;;;;;;;4.82;1.20;;;;;;;;;;10397758;28;20029;-84
2023/06/03 12:50:40;;;;;;;2.67;0.95;;;;;;;;;;10399605;28;20381;-84
2023/06/03 12:55:41;;;;;;;3.00;1.20;;;;;;;;;;10388885;28;20042;-84
2023/06/03 13:00:43;;;;;;;2.85;1.33;;;;;;;;;;10398957;28;20044;-84
2023/06/03 13:05:44;;;;;;;2.08;1.10;;;;;;;;;;10386523;28;20090;-83
2023/06/03 13:10:45;;;;;;;2.55;0.90;;;;;;;;;;10384226;28;20026;-82
2023/06/03 13:15:47;;;;;;;1.50;1.02;;;;;;;;;;10396819;28;20029;-85
2023/06/03 13:20:48;;;;;;;2.58;0.98;;;;;;;;;;10400366;28;20056;-84
2023/06/03 13:25:49;;;;;;;3.50;1.38;;;;;;;;;;10386830;28;20038;-83
2023/06/03 13:30:50;;;;;;;1.55;1.13;;;;;;;;;;10399091;28;20061;-83
2023/06/03 13:35:51;;;;;;;1.63;1.00;;;;;;;;;;10372334;28;20041;-82
2023/06/03 13:40:52;;;;;;;2.85;0.90;;;;;;;;;;10398900;28;20397;-84
2023/06/03 13:45:53;;;;;;;5.47;1.40;;;;;;;;;;10398504;28;20072;-83
2023/06/03 13:50:55;;;;;;;1.77;1.00;;;;;;;;;;10396300;28;20428;-83
2023/06/03 13:55:56;;;;;;;2.15;1.05;;;;;;;;;;10413797;28;20072;-83
2023/06/03 14:00:57;;;;;;;3.08;1.38;;;;;;;;;;10414930;28;20030;-84
2023/06/03 14:05:58;;;;;;;2.35;1.00;;;;;;;;;;10434384;28;20353;-85
2023/06/03 14:11:00;;;;;;;3.83;1.33;;;;;;;;;;10432134;28;20114;-84
2023/06/03 14:16:02;;;;;;;4.43;1.25;;;;;;;;;;10438615;28;20039;-83
2023/06/03 14:21:03;;;;;;;2.28;1.00;;;;;;;;;;10429481;28;20021;-85
2023/06/03 14:26:04;;;;;;;1.52;1.15;;;;;;;;;;10444901;28;20397;-84
2023/06/03 14:31:06;;;;;;;3.05;1.10;;;;;;;;;;10439350;28;20115;-85
2023/06/03 14:36:07;;;;;;;1.85;1.17;;;;;;;;;;10439099;28;20037;-84
2023/06/03 14:41:09;;;;;;;2.63;2.05;;;;;;;;;;10447013;28;20484;-85
2023/06/03 14:46:10;;;;;;;2.85;0.95;;;;;;;;;;10419245;28;20033;-84
2023/06/03 14:51:11;;;;;;;2.35;1.40;;;;;;;;;;10440097;28;20055;-84
2023/06/03 14:56:12;;;;;;;4.10;0.70;;;;;;;;;;10428293;28;20389;-83
2023/06/03 15:01:13;;;;;;;3.90;2.50;;;;;;;;;;10411850;28;20033;-84
2023/06/03 15:06:14;;;;;;;4.05;1.08;;;;;;;;;;10440250;28;20037;-84
2023/06/03 15:11:15;;;;;;;2.60;0.73;;;;;;;;;;10436390;28;20040;-84
2023/06/03 15:16:16;;;;;;;2.47;0.93;;;;;;;;;;10425069;28;20048;-84
2023/06/03 15:21:17;;;;;;;3.75;1.30;;;;;;;;;;10434841;28;20116;-84
2023/06/03 15:26:19;;;;;;;3.50;1.20;;;;;;;;;;10439392;28;20033;-84
2023/06/03 15:31:20;;;;;;;1.95;1.20;;;;;;;;;;10414537;28;20559;-83
2023/06/03 15:36:21;;;;;;;1.52;0.80;;;;;;;;;;10448290;28;20032;-84
2023/06/03 15:41:22;;;;;;;3.13;1.40;;;;;;;;;;10430424;28;20120;-87
2023/06/03 15:46:23;;;;;;;1.83;1.23;;;;;;;;;;10408264;28;20033;-84
2023/06/03 15:51:25;;;;;;;3.45;1.52;;;;;;;;;;10404211;28;20099;-84
2023/06/03 15:56:26;;;;;;;4.47;0.98;;;;;;;;;;10432970;28;20140;-84
2023/06/03 16:01:27;;;;;;;2.08;0.90;;;;;;;;;;10430937;28;20426;-84
2023/06/03 16:06:28;;;;;;;2.33;1.10;;;;;;;;;;10449659;28;20110;-84
2023/06/03 16:11:29;;;;;;;1.95;0.90;;;;;;;;;;10419766;28;20053;-83
2023/06/03 16:16:31;;;;;;;2.05;1.05;;;;;;;;;;10424974;28;20064;-84
2023/06/03 16:21:32;;;;;;;2.92;1.10;;;;;;;;;;10406126;28;20040;-83
2023/06/03 16:26:34;;;;;;;2.13;1.17;;;;;;;;;;10404662;28;20028;-83
2023/06/03 16:31:35;;;;;;;2.70;0.98;;;;;;;;;;10405287;28;20056;-81
2023/06/03 16:36:36;;;;;;;3.63;1.08;;;;;;;;;;10400832;28;20568;-82
2023/06/03 16:41:37;;;;;;;4.15;1.08;;;;;;;;;;10384928;28;20029;-83
2023/06/03 16:46:38;;;;;;;2.55;0.95;;;;;;;;;;10397925;28;20021;-83
2023/06/03 16:51:39;;;;;;;2.30;0.70;;;;;;;;;;10407163;28;20553;-83
2023/06/03 16:56:40;;;;;;;3.03;0.93;;;;;;;;;;10425296;28;20040;-82
2023/06/03 17:01:41;;;;;;;6.78;1.88;;;;;;;;;;10431104;28;20041;-82
2023/06/03 17:06:44;;;;;;;2.97;1.42;;;;;;;;;;10401367;28;20045;-83
2023/06/03 17:11:45;;;;;;;3.47;1.77;;;;;;;;;;10393278;28;20030;-83
2023/06/03 17:16:46;;;;;;;2.47;1.05;;;;;;;;;;10390662;28;20037;-85
2023/06/03 17:21:47;;;;;;;2.03;1.10;;;;;;;;;;10385560;28;20139;-84
2023/06/03 17:26:48;;;;;;;2.90;1.30;;;;;;;;;;10382351;28;20041;-83
2023/06/03 17:31:49;;;;;;;2.25;1.08;;;;;;;;;;10393765;28;20036;-85
2023/06/03 17:36:50;;;;;;;3.58;1.33;;;;;;;;;;10400407;28;20412;-84
2023/06/03 17:41:52;;;;;;;2.13;1.30;;;;;;;;;;10398124;28;20030;-85
2023/06/03 17:46:53;;;;;;;3.83;1.20;;;;;;;;;;10403994;28;20095;-84
2023/06/03 17:51:54;;;;;;;4.43;1.13;;;;;;;;;;10410128;28;20059;-85
2023/06/03 17:56:55;;;;;;;5.10;1.17;;;;;;;;;;10403963;28;20075;-85
2023/06/03 18:01:56;;;;;;;1.85;1.15;;;;;;;;;;10407790;28;20029;-85
2023/06/03 18:06:57;;;;;;;6.10;1.80;;;;;;;;;;10396376;28;20030;-84
2023/06/03 18:11:58;;;;;;;2.33;1.08;;;;;;;;;;10401673;28;20022;-85
2023/06/03 18:16:59;;;;;;;1.65;1.13;;;;;;;;;;10390467;28;20681;-84
2023/06/03 18:22:00;;;;;;;1.80;0.98;;;;;;;;;;10408844;28;20030;-84
2023/06/03 18:27:01;;;;;;;1.77;1.10;;;;;;;;;;10405746;28;20500;-85
2023/06/03 18:32:03;;;;;;;3.25;1.20;;;;;;;;;;10411085;28;20041;-84
2023/06/03 18:37:04;;;;;;;1.75;1.23;;;;;;;;;;10398912;28;20049;-84
2023/06/03 18:42:05;;;;;;;2.35;1.27;;;;;;;;;;10404817;28;20042;-84
2023/06/03 18:47:06;;;;;;;1.75;1.23;;;;;;;;;;10396308;28;20033;-85
2023/06/03 18:52:08;;;;;;;3.15;1.15;;;;;;;;;;10406710;28;20049;-85
2023/06/03 18:57:10;;;;;;;4.13;1.17;;;;;;;;;;10405234;28;20045;-85
2023/06/03 19:02:11;;;;;;;1.83;1.23;;;;;;;;;;10397013;28;20100;-84
2023/06/03 19:07:12;;;;;;;3.00;1.30;;;;;;;;;;10406440;28;20492;-84
2023/06/03 19:12:13;;;;;;;3.20;1.67;;;;;;;;;;10404418;28;20036;-85
2023/06/03 19:17:14;;;;;;;1.73;1.27;;;;;;;;;;10400876;28;20034;-83
2023/06/03 19:22:15;;;;;;;3.03;1.55;;;;;;;;;;10405653;28;20582;-83
2023/06/03 19:27:16;;;;;;;4.43;1.63;;;;;;;;;;10398828;28;20117;-80
2023/06/03 19:32:17;;;;;;;7.03;2.55;;;;;;;;;;10394586;28;20485;-88
2023/06/03 19:37:18;;;;;;;4.25;1.90;;;;;;;;;;10428311;28;20028;-83
2023/06/03 19:42:19;;;;;;;2.85;1.95;;;;;;;;;;10427426;28;20040;-86
2023/06/03 19:47:20;;;;;;;4.28;2.20;;;;;;;;;;10407101;28;20030;-87
2023/06/03 19:52:21;;;;;;;6.25;2.30;;;;;;;;;;10417344;28;20513;-88
2023/06/03 19:57:22;;;;;;;5.75;3.10;;;;;;;;;;10416325;28;20049;-85
2023/06/03 20:02:23;;;;;;;3.45;2.20;;;;;;;;;;10431873;28;20048;-87
2023/06/03 20:07:24;;;;;;;5.72;2.90;;;;;;;;;;10421688;28;20028;-87
2023/06/03 20:12:25;;;;;;;5.03;3.15;;;;;;;;;;10433033;28;20057;-85
2023/06/03 20:17:27;;;;;;;4.75;3.05;;;;;;;;;;10396016;28;20575;-87
2023/06/03 20:22:28;;;;;;;4.90;3.15;;;;;;;;;;10425426;28;20104;-86
2023/06/03 20:27:29;;;;;;;8.10;2.40;;;;;;;;;;10420551;28;20024;-86
2023/06/03 20:32:30;;;;;;;6.03;3.10;;;;;;;;;;10418053;28;20108;-88
2023/06/03 20:37:33;;;;;;;8.32;3.15;;;;;;;;;;10429119;28;20583;-88
2023/06/03 20:42:34;;;;;;;7.57;3.33;;;;;;;;;;10417158;28;20073;-88
2023/06/03 20:47:35;;;;;;;8.77;3.45;;;;;;;;;;10407684;28;20159;-89
2023/06/03 20:52:36;;;;;;;5.82;2.70;;;;;;;;;;10409760;28;20102;-86
2023/06/03 20:57:37;;;;;;;7.07;3.20;;;;;;;;;;10412828;28;20119;-87
2023/06/03 21:02:38;;;;;;;7.93;3.15;;;;;;;;;;10415548;28;20025;-85
2023/06/03 21:07:39;;;;;;;8.77;2.83;;;;;;;;;;10423277;28;20036;-87
2023/06/03 21:12:40;;;;;;;5.95;2.90;;;;;;;;;;10419813;28;20053;-88
2023/06/03 21:17:41;;;;;;;6.18;3.00;;;;;;;;;;10412484;28;20671;-83
2023/06/03 21:22:42;;;;;;;6.28;3.25;;;;;;;;;;10425034;28;20048;-86
2023/06/03 21:27:43;;;;;;;8.18;3.78;;;;;;;;;;10428692;28;20131;-86
2023/06/03 21:32:44;;;;;;;6.10;3.42;;;;;;;;;;10388525;28;20034;-85
2023/06/03 21:37:45;;;;;;;5.90;2.63;;;;;;;;;;10420256;28;20042;-87
2023/06/03 21:42:46;;;;;;;5.20;2.38;;;;;;;;;;10423106;28;20032;-87
2023/06/03 21:47:50;;;;;;;6.38;2.85;;;;;;;;;;10397070;28;20037;-87
2023/06/03 21:52:51;;;;;;;5.43;2.40;;;;;;;;;;10431927;28;20057;-86
2023/06/03 21:57:54;;;;;;;4.13;2.47;;;;;;;;;;10435027;28;20094;-85
2023/06/03 22:02:55;;;;;;;9.80;2.78;;;;;;;;;;10416556;28;20392;-86
2023/06/03 22:07:56;;;;;;;9.20;4.25;;;;;;;;;;10437863;28;20035;-87
2023/06/03 22:12:57;;;;;;;7.80;3.92;;;;;;;;;;10429106;28;20393;-86
2023/06/03 22:17:58;;;;;;;6.78;3.92;;;;;;;;;;10418634;28;20045;-86
2023/06/03 22:23:00;;;;;;;8.27;3.63;;;;;;;;;;10436828;28;20054;-85
2023/06/03 22:28:01;;;;;;;8.25;3.78;;;;;;;;;;10432597;28;20033;-85
2023/06/03 22:33:02;;;;;;;7.15;3.20;;;;;;;;;;10420113;28;20043;-85
2023/06/03 22:38:03;;;;;;;6.50;2.90;;;;;;;;;;10426352;28;20041;-85
2023/06/03 22:43:04;;;;;;;8.15;3.13;;;;;;;;;;10429643;28;20068;-85
2023/06/03 22:48:06;;;;;;;6.03;2.80;;;;;;;;;;10417072;28;20658;-85
2023/06/03 22:53:07;;;;;;;5.43;2.75;;;;;;;;;;10423877;28;20057;-85
2023/06/03 22:58:08;;;;;;;5.10;2.72;;;;;;;;;;10433866;28;20129;-86
2023/06/03 23:03:10;;;;;;;8.00;3.50;;;;;;;;;;10435774;28;20039;-85
2023/06/03 23:08:11;;;;;;;4.85;2.50;;;;;;;;;;10424364;28;20037;-86
2023/06/03 23:13:12;;;;;;;4.63;2.40;;;;;;;;;;10427874;28;20469;-85
2023/06/03 23:18:13;;;;;;;4.33;2.53;;;;;;;;;;10425897;28;20036;-86
2023/06/03 23:23:14;;;;;;;5.38;2.90;;;;;;;;;;10447459;28;20510;-85
2023/06/03 23:28:15;;;;;;;4.93;2.27;;;;;;;;;;10427511;28;20040;-85
2023/06/03 23:33:16;;;;;;;6.30;2.37;;;;;;;;;;10415513;28;20033;-85
2023/06/03 23:38:17;;;;;;;3.67;2.10;;;;;;;;;;10434341;28;20094;-85
2023/06/03 23:43:18;;;;;;;3.90;2.00;;;;;;;;;;10437156;28;20081;-87
2023/06/03 23:48:19;;;;;;;4.67;2.57;;;;;;;;;;10429612;28;20033;-85
2023/06/03 23:53:20;;;;;;;5.63;2.70;;;;;;;;;;10443334;28;20049;-86
2023/06/03 23:58:21;;;;;;;5.17;2.33;;;;;;;;;;10433786;28;20668;-86
